Portada
METAR-TAF:

METAR-TAF

Aeroports :

Illa Lavan, Iran

latitud: 26-48-37N, longitud: 53-21-22E, altitud: 23 m

Observació

L'informe es va fer fa 12 hores i 37 minuts, a les 14:00 UTC
Vent 4 kt del Sud/Sud-Oest
Temperatura 34°C
Humitat 80%
Pressió 1003 hPa
Visibilitat: 5000 m
Escasses núvols a una alçada de 3000 ft
calitja

METAR: OIBV 201400Z 21004KT 5000 HZ FEW030 34/30 Q1003

Hora: 07:07 (02:37 UTC)


TAF: manca

Observacions i pronòstics meteorològics de més de 4000 aeroports (METAR i TAF).

Les estacions disponibles són els punts grocs i vermells al mapa.

Posi el ratolí al punt desitjat per veure el nom de l'estació.

Feu clic per veure les observacions i els pronòstics meteorològics.

Per canviar el mapa: feu clic els botons verds amb una creu de color negre per apropar; al botó verd amb un guió per allunyar la imatge; o en les fletxes verdes per a mapes adjacents.


METAR-TAF: